Blue Star Patmos — SVBF8 — position and weather

sailwx.info

Track history (hours):
 
Tides and Currents Weather Stations Pressure Air Temp Water Temp Dewpoint Dewpoint Depression Visibility Wind Speed Wind Dir Waves Ship Positions

Blue Star Patmos

Last reported at 2018-Jun-23 20:30 UTC. Time now 2018-Jun-24 01:36 UTC.
Position N 36°59' E 025°17'.

Length 145 m; draft 5.9 m.

Type: Ship. MMSI: 241159000.

Date/timePositionNaut miles runAvg speedWind from/ knotsBaromVisibWave heightAir tempDewpointWater temp
2018-Jun-23 20:30N 36°59' E 025°17'816.6
2018-Jun-23 20:01N 37°06' E 025°22'510.4
2018-Jun-23 19:31N 37°10' E 025°17'9 9.4
2018-Jun-23 18:30N 37°06' E 025°07'1224.4
2018-Jun-23 18:00N 37°13' E 024°54'5723.7
2018-Jun-23 15:36N 37°38' E 023°50'224.3
2018-Jun-23 15:31N 37°39' E 023°47'1122.8
2018-Jun-23 15:01N 37°48' E 023°38'918.1
2018-Jun-23 14:30N 37°57' E 023°38'0 0.1
2018-Jun-23 14:00N 37°57' E 023°38'0 0.0
2018-Jun-23 13:30N 37°57' E 023°38'0 0.0
2018-Jun-23 13:00N 37°57' E 023°38'0 0.0
2018-Jun-23 12:31N 37°57' E 023°38'0 0.0
2018-Jun-23 12:00N 37°57' E 023°38'2 4.4
2018-Jun-23 11:30N 37°55' E 023°38'1223.5
2018-Jun-23 11:01N 37°44' E 023°44'5524.4
2018-Jun-23 08:44N 37°19' E 024°46'624.9
2018-Jun-23 08:31N 37°15' E 024°51'1224.5
2018-Jun-23 08:00N 37°08' E 025°04'4 6.6
2018-Jun-23 07:20N 37°05' E 025°08'618.5
2018-Jun-23 07:00N 37°10' E 025°14'815.1
2018-Jun-23 06:30N 37°06' E 025°22'1 2.0
2018-Jun-23 06:01N 37°06' E 025°21'8 0.8
2018-Jun-22 20:35N 36°59' E 025°17'224.2
2018-Jun-22 20:30N 37°01' E 025°18'612.6
2018-Jun-22 20:00N 37°06' E 025°22'510.2
2018-Jun-22 19:31N 37°10' E 025°18'9 8.8
2018-Jun-22 18:31N 37°05' E 025°08'118.8
2018-Jun-22 18:26N 37°06' E 025°07'1124.7
2018-Jun-22 18:00N 37°13' E 024°56'5124.0
2018-Jun-22 15:52N 37°36' E 023°59'924.7
2018-Jun-22 15:31N 37°38' E 023°48'1223.1
2018-Jun-22 15:01N 37°47' E 023°39'918.8
2018-Jun-22 14:31N 37°57' E 023°38'0 0.0
2018-Jun-22 14:00N 37°57' E 023°38'0 0.0
2018-Jun-22 13:30N 37°57' E 023°38'0 0.0
2018-Jun-22 13:00N 37°57' E 023°38'0 0.0
2018-Jun-22 12:30N 37°57' E 023°38'0 0.0
2018-Jun-22 12:00N 37°57' E 023°38'2 4.7
2018-Jun-22 11:30N 37°55' E 023°37'1223.6
2018-Jun-22 11:01N 37°44' E 023°44'1224.1
2018-Jun-22 10:30N 37°37' E 023°56'1424.3
2018-Jun-22 09:55N 37°32' E 024°13'2924.3
2018-Jun-22 08:43N 37°19' E 024°46'525.3
2018-Jun-22 08:30N 37°15' E 024°51'1224.8
2018-Jun-22 08:00N 37°08' E 025°03'5 6.8
2018-Jun-22 07:19N 37°05' E 025°08'517.0
2018-Jun-22 07:00N 37°09' E 025°13'816.4
2018-Jun-22 06:30N 37°06' E 025°22'1 1.7
2018-Jun-22 06:01N 37°06' E 025°21'8 0.9
2018-Jun-21 21:30N 36°59' E 025°17'816.4
2018-Jun-21 21:00N 37°06' E 025°22'2 3.5
2018-Jun-21 20:30N 37°07' E 025°21'1020.1
2018-Jun-21 20:00N 37°06' E 025°08'1 1.2
2018-Jun-21 19:30N 37°06' E 025°07'1224.4
2018-Jun-21 19:01N 37°18' E 025°02'9 9.9
2018-Jun-21 18:03N 37°26' E 024°57'120.3
2018-Jun-21 18:00N 37°27' E 024°57'1020.4
2018-Jun-21 17:30N 37°31' E 024°46'4523.4
2018-Jun-21 15:36N 37°38' E 023°50'224.3
2018-Jun-21 15:31N 37°39' E 023°48'1122.9
2018-Jun-21 15:01N 37°48' E 023°39'917.5
2018-Jun-21 14:31N 37°57' E 023°38'0 0.0
2018-Jun-21 14:01N 37°57' E 023°38'0 0.0
2018-Jun-21 13:30N 37°57' E 023°38'0 0.0
2018-Jun-21 13:00N 37°57' E 023°38'0 0.0
2018-Jun-21 12:30N 37°57' E 023°38'0 0.0
2018-Jun-21 12:01N 37°57' E 023°38'2 3.4
2018-Jun-21 11:30N 37°55' E 023°37'1223.5
2018-Jun-21 11:01N 37°45' E 023°43'5924.5
2018-Jun-21 08:36N 37°17' E 024°49'225.1
2018-Jun-21 08:30N 37°15' E 024°51'1224.7
2018-Jun-21 08:01N 37°08' E 025°03'5 6.9
2018-Jun-21 07:19N 37°05' E 025°08'516.8
2018-Jun-21 07:00N 37°09' E 025°13'816.5
2018-Jun-21 06:30N 37°06' E 025°22'2 3.1
2018-Jun-21 06:00N 37°06' E 025°20'7 0.8
2018-Jun-20 20:34N 36°59' E 025°17'224.8
2018-Jun-20 20:31N 37°01' E 025°17'713.3
2018-Jun-20 20:00N 37°06' E 025°22'5 9.7
2018-Jun-20 19:30N 37°10' E 025°18'10 9.4
2018-Jun-20 18:28N 37°06' E 025°07'1224.7
2018-Jun-20 18:00N 37°13' E 024°55'6123.8
2018-Jun-20 15:26N 37°40' E 023°46'1024.0
2018-Jun-20 15:01N 37°48' E 023°38'917.9
2018-Jun-20 14:30N 37°57' E 023°38'0 0.1
2018-Jun-20 14:00N 37°57' E 023°38'0 0.0
2018-Jun-20 13:30N 37°57' E 023°38'0 0.0
2018-Jun-20 13:00N 37°57' E 023°38'0 0.0
2018-Jun-20 12:30N 37°57' E 023°38'0 0.0
2018-Jun-20 12:00N 37°57' E 023°38'3 5.1
2018-Jun-20 11:30N 37°54' E 023°38'1123.0
2018-Jun-20 11:01N 37°44' E 023°44'5524.2
2018-Jun-20 08:44N 37°19' E 024°46'624.9
2018-Jun-20 08:30N 37°15' E 024°51'1224.4
2018-Jun-20 08:00N 37°08' E 025°03'4 5.0
2018-Jun-20 07:14N 37°06' E 025°08'522.8
2018-Jun-20 07:01N 37°09' E 025°13'815.8
2018-Jun-20 06:30N 37°06' E 025°22'2 3.6
2018-Jun-20 06:00N 37°06' E 025°20'7 0.8
2018-Jun-19 21:27N 36°59' E 025°17'816.8
2018-Jun-19 20:58N 37°06' E 025°22'4 9.1
2018-Jun-19 20:30N 37°09' E 025°18'9 8.6
2018-Jun-19 19:28N 37°05' E 025°08'1023.1
2018-Jun-19 19:00N 37°15' E 025°03'1223.8
2018-Jun-19 18:30N 37°26' E 024°57'3 6.0
2018-Jun-19 18:00N 37°29' E 024°57'5823.3
2018-Jun-19 15:30N 37°40' E 023°45'1223.9
2018-Jun-19 15:00N 37°50' E 023°38'713.2
2018-Jun-19 14:30N 37°57' E 023°38'0 0.0
2018-Jun-19 14:00N 37°57' E 023°38'0 0.0
2018-Jun-19 13:30N 37°57' E 023°38'0 0.0
2018-Jun-19 13:00N 37°57' E 023°38'0 0.0
2018-Jun-19 12:30N 37°57' E 023°38'0 0.0
2018-Jun-19 12:00N 37°57' E 023°38'4 7.8
2018-Jun-19 11:30N 37°53' E 023°38'1223.5
2018-Jun-19 11:01N 37°42' E 023°45'5423.9
2018-Jun-19 08:45N 37°18' E 024°46'624.2
2018-Jun-19 08:30N 37°15' E 024°52'1223.8
2018-Jun-19 08:00N 37°08' E 025°04'4 4.4
2018-Jun-19 07:11N 37°06' E 025°08'523.5
2018-Jun-19 06:57N 37°09' E 025°13'817.4
2018-Jun-19 06:30N 37°06' E 025°22'2 4.4
2018-Jun-19 06:01N 37°05' E 025°20'7 0.7
2018-Jun-18 20:38N 36°59' E 025°17'325.1
2018-Jun-18 20:31N 37°02' E 025°18'510.7
2018-Jun-18 20:00N 37°06' E 025°22'510.3
2018-Jun-18 19:31N 37°10' E 025°18'910.2
2018-Jun-18 18:38N 37°05' E 025°08'320.3
2018-Jun-18 18:30N 37°07' E 025°06'1224.8
2018-Jun-18 18:00N 37°14' E 024°53'5924.0
2018-Jun-18 15:34N 37°39' E 023°46'124.5
2018-Jun-18 15:31N 37°40' E 023°45'1223.5
2018-Jun-18 15:00N 37°50' E 023°38'713.2
2018-Jun-18 14:30N 37°57' E 023°38'0 0.0
2018-Jun-18 14:01N 37°57' E 023°38'0 0.0
2018-Jun-18 13:30N 37°57' E 023°38'0 0.0
2018-Jun-18 13:01N 37°57' E 023°38'0 0.0
2018-Jun-18 12:30N 37°57' E 023°38'0 0.0
2018-Jun-18 12:00N 37°57' E 023°38'4 7.4
2018-Jun-18 11:30N 37°53' E 023°38'1223.5
2018-Jun-18 11:01N 37°43' E 023°45'5424.0
2018-Jun-18 08:45N 37°18' E 024°46'624.6
2018-Jun-18 08:30N 37°15' E 024°52'1223.9
2018-Jun-18 08:01N 37°08' E 025°04'4 5.9
2018-Jun-18 07:16N 37°05' E 025°08'617.4
2018-Jun-18 06:57N 37°09' E 025°13'817.9
2018-Jun-18 06:30N 37°06' E 025°22'2 3.7
2018-Jun-18 06:00N 37°06' E 025°20'7 0.8
2018-Jun-17 21:21N 36°59' E 025°17'822.5
2018-Jun-17 21:00N 37°06' E 025°20'1 2.1
2018-Jun-17 20:31N 37°07' E 025°21'1019.1
2018-Jun-17 19:59N 37°06' E 025°08'1 2.6
2018-Jun-17 19:30N 37°05' E 025°08'1021.0
2018-Jun-17 19:00N 37°15' E 025°03'1223.7
2018-Jun-17 18:30N 37°26' E 024°58'3 5.9
2018-Jun-17 18:00N 37°28' E 024°57'1121.7
2018-Jun-17 17:30N 37°31' E 024°44'4723.1
2018-Jun-17 15:29N 37°39' E 023°46'1122.7
2018-Jun-17 15:01N 37°48' E 023°38'918.1
2018-Jun-17 14:31N 37°57' E 023°38'0 0.2
2018-Jun-17 14:00N 37°57' E 023°38'0 0.0
2018-Jun-17 13:30N 37°57' E 023°38'0 0.0
2018-Jun-17 13:00N 37°57' E 023°38'0 0.0
2018-Jun-17 12:30N 37°57' E 023°38'0 0.0
2018-Jun-17 12:00N 37°57' E 023°38'5 9.3
2018-Jun-17 11:31N 37°52' E 023°39'1224.0
2018-Jun-17 11:00N 37°41' E 023°46'5323.7
2018-Jun-17 08:47N 37°19' E 024°45'724.3
2018-Jun-17 08:30N 37°15' E 024°52'1223.7
2018-Jun-17 08:00N 37°07' E 025°04'4 5.5
2018-Jun-17 07:17N 37°05' E 025°08'516.1
2018-Jun-17 06:57N 37°09' E 025°13'818.5
2018-Jun-17 06:30N 37°06' E 025°22'2 3.3
2018-Jun-17 06:01N 37°06' E 025°20'7 0.8
2018-Jun-16 20:30N 36°59' E 025°17'816.7
2018-Jun-16 20:00N 37°06' E 025°22'510.9
2018-Jun-16 19:31N 37°10' E 025°17'910.7
2018-Jun-16 18:42N 37°05' E 025°08'420.6
2018-Jun-16 18:30N 37°08' E 025°04'1223.2
2018-Jun-16 18:01N 37°14' E 024°53'6422.9
2018-Jun-16 15:13N 37°44' E 023°41'523.8
2018-Jun-16 15:01N 37°48' E 023°38'917.3
2018-Jun-16 14:31N 37°57' E 023°38'0 0.1
2018-Jun-16 14:00N 37°57' E 023°38'0 0.0
2018-Jun-16 13:30N 37°57' E 023°38'0 0.0
2018-Jun-16 13:00N 37°57' E 023°38'0 0.0
2018-Jun-16 12:30N 37°57' E 023°38'0 0.0
2018-Jun-16 12:00N 37°57' E 023°38'4 8.1
2018-Jun-16 11:31N 37°53' E 023°38'1224.0
2018-Jun-16 11:01N 37°42' E 023°45'2423.8
2018-Jun-16 09:59N 37°32' E 024°13'2923.8
2018-Jun-16 08:46N 37°19' E 024°45'624.3
2018-Jun-16 08:30N 37°15' E 024°52'1223.7
2018-Jun-16 08:00N 37°08' E 025°04'4 4.3
2018-Jun-16 07:12N 37°06' E 025°08'521.6
2018-Jun-16 06:58N 37°09' E 025°13'817.6
2018-Jun-16 06:31N 37°06' E 025°22'1 2.8
2018-Jun-16 06:00N 37°06' E 025°20'7 0.8
2018-Jun-15 20:46N 36°59' E 025°17'622.3
2018-Jun-15 20:30N 37°05' E 025°19'3 6.1
2018-Jun-15 20:00N 37°06' E 025°22'714.5
2018-Jun-15 19:31N 37°10' E 025°14'7 7.2
2018-Jun-15 18:36N 37°05' E 025°08'219.5
2018-Jun-15 18:30N 37°06' E 025°06'1224.4
2018-Jun-15 18:01N 37°14' E 024°54'6023.6
2018-Jun-15 15:29N 37°39' E 023°46'1122.9
2018-Jun-15 15:00N 37°48' E 023°38'917.5
2018-Jun-15 14:31N 37°57' E 023°38'0 0.0
2018-Jun-15 14:00N 37°57' E 023°38'0 0.0
2018-Jun-15 13:30N 37°57' E 023°38'0 0.0
2018-Jun-15 13:00N 37°57' E 023°38'0 0.0
2018-Jun-15 12:30N 37°57' E 023°38'0 0.0
2018-Jun-15 12:00N 37°57' E 023°38'5 9.3
2018-Jun-15 11:31N 37°52' E 023°39'1224.6
2018-Jun-15 11:01N 37°41' E 023°46'1223.8
2018-Jun-15 10:30N 37°36' E 023°59'1224.2
2018-Jun-15 10:00N 37°31' E 024°14'2823.7
2018-Jun-15 08:49N 37°19' E 024°45'724.4
2018-Jun-15 08:30N 37°14' E 024°53'1224.2
2018-Jun-15 08:01N 37°07' E 025°05'3 3.3
2018-Jun-15 07:14N 37°07' E 025°08'520.8
2018-Jun-15 07:00N 37°09' E 025°13'815.8
2018-Jun-15 06:30N 37°06' E 025°22'0 0.0
2018-Jun-15 06:00N 37°06' E 025°22'714.3
2018-Jun-15 05:30N 37°11' E 025°29'1121.3
2018-Jun-15 05:00N 37°09' E 025°42'3 0.4
2018-Jun-14 22:16N 37°07' E 025°44'622.9
2018-Jun-14 22:00N 37°10' E 025°38'1019.8
2018-Jun-14 21:30N 37°10' E 025°25'4 8.2
2018-Jun-14 20:59N 37°06' E 025°22'13 8.5
2018-Jun-14 19:31N 37°07' E 025°06'124.2
2018-Jun-14 19:29N 37°08' E 025°06'1124.3
2018-Jun-14 19:00N 37°19' E 025°01'8 9.0
2018-Jun-14 18:08N 37°26' E 024°57'320.9
2018-Jun-14 18:00N 37°29' E 024°57'1122.1
2018-Jun-14 17:30N 37°32' E 024°44'4123.0
2018-Jun-14 15:43N 37°37' E 023°52'523.9
2018-Jun-14 15:30N 37°38' E 023°46'1122.9
2018-Jun-14 15:00N 37°48' E 023°38'917.6
2018-Jun-14 14:31N 37°57' E 023°38'0 0.1
2018-Jun-14 14:00N 37°57' E 023°38'0 0.0
2018-Jun-14 13:30N 37°57' E 023°38'0 0.0
2018-Jun-14 13:00N 37°57' E 023°38'0 0.0
2018-Jun-14 12:31N 37°57' E 023°38'0 0.0
2018-Jun-14 12:01N 37°57' E 023°38'0 0.0
2018-Jun-14 11:31N 37°57' E 023°38'0 0.0
2018-Jun-14 11:01N 37°57' E 023°38'0 0.0
2018-Jun-14 10:30N 37°57' E 023°38'0 0.0
2018-Jun-14 10:00N 37°57' E 023°38'0 0.0
2018-Jun-14 09:30N 37°57' E 023°38'0 0.0
2018-Jun-14 09:00N 37°57' E 023°38'0 0.0
2018-Jun-14 08:30N 37°57' E 023°38'0 0.5
2018-Jun-14 07:40N 37°57' E 023°38'211.1
2018-Jun-14 07:31N 37°55' E 023°37'1019.1
2018-Jun-14 07:01N 37°46' E 023°42'1620.5
2018-Jun-14 06:15N 37°37' E 023°58'3921.3
2018-Jun-14 04:24N 37°23' E 024°45'821.3
2018-Jun-14 04:00N 37°20' E 024°54'1121.4
2018-Jun-14 03:30N 37°20' E 025°08'1121.5
2018-Jun-14 03:00N 37°19' E 025°21'1621.3
2018-Jun-14 02:15N 37°18' E 025°42'521.4
2018-Jun-14 02:00N 37°18' E 025°48'  
Track history (hours):
 
Tides and Currents Weather Stations Pressure Air Temp Water Temp Dewpoint Dewpoint Depression Visibility Wind Speed Wind Dir Waves Ship Positions

Blue Star Patmos

Last reported at 2018-Jun-23 20:30 UTC. Time now 2018-Jun-24 01:36 UTC.
Position N 36°59' E 025°17'.

Length 145 m; draft 5.9 m.

Type: Ship. MMSI: 241159000.

Date/timePositionNaut miles runAvg speedWind from/ knotsBaromVisibWave heightAir tempDewpointWater temp
2018-Jun-23 20:30N 36°59' E 025°17'816.6
2018-Jun-23 20:01N 37°06' E 025°22'510.4
2018-Jun-23 19:31N 37°10' E 025°17'9 9.4
2018-Jun-23 18:30N 37°06' E 025°07'1224.4
2018-Jun-23 18:00N 37°13' E 024°54'5723.7
2018-Jun-23 15:36N 37°38' E 023°50'224.3
2018-Jun-23 15:31N 37°39' E 023°47'1122.8
2018-Jun-23 15:01N 37°48' E 023°38'918.1
2018-Jun-23 14:30N 37°57' E 023°38'0 0.1
2018-Jun-23 14:00N 37°57' E 023°38'0 0.0
2018-Jun-23 13:30N 37°57' E 023°38'0 0.0
2018-Jun-23 13:00N 37°57' E 023°38'0 0.0
2018-Jun-23 12:31N 37°57' E 023°38'0 0.0
2018-Jun-23 12:00N 37°57' E 023°38'2 4.4
2018-Jun-23 11:30N 37°55' E 023°38'1223.5
2018-Jun-23 11:01N 37°44' E 023°44'5524.4
2018-Jun-23 08:44N 37°19' E 024°46'624.9
2018-Jun-23 08:31N 37°15' E 024°51'1224.5
2018-Jun-23 08:00N 37°08' E 025°04'4 6.6
2018-Jun-23 07:20N 37°05' E 025°08'618.5
2018-Jun-23 07:00N 37°10' E 025°14'815.1
2018-Jun-23 06:30N 37°06' E 025°22'1 2.0
2018-Jun-23 06:01N 37°06' E 025°21'8 0.8
2018-Jun-22 20:35N 36°59' E 025°17'224.2
2018-Jun-22 20:30N 37°01' E 025°18'612.6
2018-Jun-22 20:00N 37°06' E 025°22'510.2
2018-Jun-22 19:31N 37°10' E 025°18'9 8.8
2018-Jun-22 18:31N 37°05' E 025°08'118.8
2018-Jun-22 18:26N 37°06' E 025°07'1124.7
2018-Jun-22 18:00N 37°13' E 024°56'5124.0
2018-Jun-22 15:52N 37°36' E 023°59'924.7
2018-Jun-22 15:31N 37°38' E 023°48'1223.1
2018-Jun-22 15:01N 37°47' E 023°39'918.8
2018-Jun-22 14:31N 37°57' E 023°38'0 0.0
2018-Jun-22 14:00N 37°57' E 023°38'0 0.0
2018-Jun-22 13:30N 37°57' E 023°38'0 0.0
2018-Jun-22 13:00N 37°57' E 023°38'0 0.0
2018-Jun-22 12:30N 37°57' E 023°38'0 0.0
2018-Jun-22 12:00N 37°57' E 023°38'2 4.7
2018-Jun-22 11:30N 37°55' E 023°37'1223.6
2018-Jun-22 11:01N 37°44' E 023°44'1224.1
2018-Jun-22 10:30N 37°37' E 023°56'1424.3
2018-Jun-22 09:55N 37°32' E 024°13'2924.3
2018-Jun-22 08:43N 37°19' E 024°46'525.3
2018-Jun-22 08:30N 37°15' E 024°51'1224.8
2018-Jun-22 08:00N 37°08' E 025°03'5 6.8
2018-Jun-22 07:19N 37°05' E 025°08'517.0
2018-Jun-22 07:00N 37°09' E 025°13'816.4
2018-Jun-22 06:30N 37°06' E 025°22'1 1.7
2018-Jun-22 06:01N 37°06' E 025°21'8 0.9
2018-Jun-21 21:30N 36°59' E 025°17'816.4
2018-Jun-21 21:00N 37°06' E 025°22'2 3.5
2018-Jun-21 20:30N 37°07' E 025°21'1020.1
2018-Jun-21 20:00N 37°06' E 025°08'1 1.2
2018-Jun-21 19:30N 37°06' E 025°07'1224.4
2018-Jun-21 19:01N 37°18' E 025°02'9 9.9
2018-Jun-21 18:03N 37°26' E 024°57'120.3
2018-Jun-21 18:00N 37°27' E 024°57'1020.4
2018-Jun-21 17:30N 37°31' E 024°46'4523.4
2018-Jun-21 15:36N 37°38' E 023°50'224.3
2018-Jun-21 15:31N 37°39' E 023°48'1122.9
2018-Jun-21 15:01N 37°48' E 023°39'917.5
2018-Jun-21 14:31N 37°57' E 023°38'0 0.0
2018-Jun-21 14:01N 37°57' E 023°38'0 0.0
2018-Jun-21 13:30N 37°57' E 023°38'0 0.0
2018-Jun-21 13:00N 37°57' E 023°38'0 0.0
2018-Jun-21 12:30N 37°57' E 023°38'0 0.0
2018-Jun-21 12:01N 37°57' E 023°38'2 3.4
2018-Jun-21 11:30N 37°55' E 023°37'1223.5
2018-Jun-21 11:01N 37°45' E 023°43'5924.5
2018-Jun-21 08:36N 37°17' E 024°49'225.1
2018-Jun-21 08:30N 37°15' E 024°51'1224.7
2018-Jun-21 08:01N 37°08' E 025°03'5 6.9
2018-Jun-21 07:19N 37°05' E 025°08'516.8
2018-Jun-21 07:00N 37°09' E 025°13'816.5
2018-Jun-21 06:30N 37°06' E 025°22'2 3.1
2018-Jun-21 06:00N 37°06' E 025°20'7 0.8
2018-Jun-20 20:34N 36°59' E 025°17'224.8
2018-Jun-20 20:31N 37°01' E 025°17'713.3
2018-Jun-20 20:00N 37°06' E 025°22'5 9.7
2018-Jun-20 19:30N 37°10' E 025°18'10 9.4
2018-Jun-20 18:28N 37°06' E 025°07'1224.7
2018-Jun-20 18:00N 37°13' E 024°55'6123.8
2018-Jun-20 15:26N 37°40' E 023°46'1024.0
2018-Jun-20 15:01N 37°48' E 023°38'917.9
2018-Jun-20 14:30N 37°57' E 023°38'0 0.1
2018-Jun-20 14:00N 37°57' E 023°38'0 0.0
2018-Jun-20 13:30N 37°57' E 023°38'0 0.0
2018-Jun-20 13:00N 37°57' E 023°38'0 0.0
2018-Jun-20 12:30N 37°57' E 023°38'0 0.0
2018-Jun-20 12:00N 37°57' E 023°38'3 5.1
2018-Jun-20 11:30N 37°54' E 023°38'1123.0
2018-Jun-20 11:01N 37°44' E 023°44'5524.2
2018-Jun-20 08:44N 37°19' E 024°46'624.9
2018-Jun-20 08:30N 37°15' E 024°51'1224.4
2018-Jun-20 08:00N 37°08' E 025°03'4 5.0
2018-Jun-20 07:14N 37°06' E 025°08'522.8
2018-Jun-20 07:01N 37°09' E 025°13'815.8
2018-Jun-20 06:30N 37°06' E 025°22'2 3.6
2018-Jun-20 06:00N 37°06' E 025°20'7 0.8
2018-Jun-19 21:27N 36°59' E 025°17'816.8
2018-Jun-19 20:58N 37°06' E 025°22'4 9.1
2018-Jun-19 20:30N 37°09' E 025°18'9 8.6
2018-Jun-19 19:28N 37°05' E 025°08'1023.1
2018-Jun-19 19:00N 37°15' E 025°03'1223.8
2018-Jun-19 18:30N 37°26' E 024°57'3 6.0
2018-Jun-19 18:00N 37°29' E 024°57'5823.3
2018-Jun-19 15:30N 37°40' E 023°45'1223.9
2018-Jun-19 15:00N 37°50' E 023°38'713.2
2018-Jun-19 14:30N 37°57' E 023°38'0 0.0
2018-Jun-19 14:00N 37°57' E 023°38'0 0.0
2018-Jun-19 13:30N 37°57' E 023°38'0 0.0
2018-Jun-19 13:00N 37°57' E 023°38'0 0.0
2018-Jun-19 12:30N 37°57' E 023°38'0 0.0
2018-Jun-19 12:00N 37°57' E 023°38'4 7.8
2018-Jun-19 11:30N 37°53' E 023°38'1223.5
2018-Jun-19 11:01N 37°42' E 023°45'5423.9
2018-Jun-19 08:45N 37°18' E 024°46'624.2
2018-Jun-19 08:30N 37°15' E 024°52'1223.8
2018-Jun-19 08:00N 37°08' E 025°04'4 4.4
2018-Jun-19 07:11N 37°06' E 025°08'523.5
2018-Jun-19 06:57N 37°09' E 025°13'817.4
2018-Jun-19 06:30N 37°06' E 025°22'2 4.4
2018-Jun-19 06:01N 37°05' E 025°20'7 0.7
2018-Jun-18 20:38N 36°59' E 025°17'325.1
2018-Jun-18 20:31N 37°02' E 025°18'510.7
2018-Jun-18 20:00N 37°06' E 025°22'510.3
2018-Jun-18 19:31N 37°10' E 025°18'910.2
2018-Jun-18 18:38N 37°05' E 025°08'320.3
2018-Jun-18 18:30N 37°07' E 025°06'1224.8
2018-Jun-18 18:00N 37°14' E 024°53'5924.0
2018-Jun-18 15:34N 37°39' E 023°46'124.5
2018-Jun-18 15:31N 37°40' E 023°45'1223.5
2018-Jun-18 15:00N 37°50' E 023°38'713.2
2018-Jun-18 14:30N 37°57' E 023°38'0 0.0
2018-Jun-18 14:01N 37°57' E 023°38'0 0.0
2018-Jun-18 13:30N 37°57' E 023°38'0 0.0
2018-Jun-18 13:01N 37°57' E 023°38'0 0.0
2018-Jun-18 12:30N 37°57' E 023°38'0 0.0
2018-Jun-18 12:00N 37°57' E 023°38'4 7.4
2018-Jun-18 11:30N 37°53' E 023°38'1223.5
2018-Jun-18 11:01N 37°43' E 023°45'5424.0
2018-Jun-18 08:45N 37°18' E 024°46'624.6
2018-Jun-18 08:30N 37°15' E 024°52'1223.9
2018-Jun-18 08:01N 37°08' E 025°04'4 5.9
2018-Jun-18 07:16N 37°05' E 025°08'617.4
2018-Jun-18 06:57N 37°09' E 025°13'817.9
2018-Jun-18 06:30N 37°06' E 025°22'2 3.7
2018-Jun-18 06:00N 37°06' E 025°20'7 0.8
2018-Jun-17 21:21N 36°59' E 025°17'822.5
2018-Jun-17 21:00N 37°06' E 025°20'1 2.1
2018-Jun-17 20:31N 37°07' E 025°21'1019.1
2018-Jun-17 19:59N 37°06' E 025°08'1 2.6
2018-Jun-17 19:30N 37°05' E 025°08'1021.0
2018-Jun-17 19:00N 37°15' E 025°03'1223.7
2018-Jun-17 18:30N 37°26' E 024°58'3 5.9
2018-Jun-17 18:00N 37°28' E 024°57'1121.7
2018-Jun-17 17:30N 37°31' E 024°44'4723.1
2018-Jun-17 15:29N 37°39' E 023°46'1122.7
2018-Jun-17 15:01N 37°48' E 023°38'918.1
2018-Jun-17 14:31N 37°57' E 023°38'0 0.2
2018-Jun-17 14:00N 37°57' E 023°38'0 0.0
2018-Jun-17 13:30N 37°57' E 023°38'0 0.0
2018-Jun-17 13:00N 37°57' E 023°38'0 0.0
2018-Jun-17 12:30N 37°57' E 023°38'0 0.0
2018-Jun-17 12:00N 37°57' E 023°38'5 9.3
2018-Jun-17 11:31N 37°52' E 023°39'1224.0
2018-Jun-17 11:00N 37°41' E 023°46'5323.7
2018-Jun-17 08:47N 37°19' E 024°45'724.3
2018-Jun-17 08:30N 37°15' E 024°52'1223.7
2018-Jun-17 08:00N 37°07' E 025°04'4 5.5
2018-Jun-17 07:17N 37°05' E 025°08'516.1
2018-Jun-17 06:57N 37°09' E 025°13'818.5
2018-Jun-17 06:30N 37°06' E 025°22'2 3.3
2018-Jun-17 06:01N 37°06' E 025°20'7 0.8
2018-Jun-16 20:30N 36°59' E 025°17'816.7
2018-Jun-16 20:00N 37°06' E 025°22'510.9
2018-Jun-16 19:31N 37°10' E 025°17'910.7
2018-Jun-16 18:42N 37°05' E 025°08'420.6
2018-Jun-16 18:30N 37°08' E 025°04'1223.2
2018-Jun-16 18:01N 37°14' E 024°53'6422.9
2018-Jun-16 15:13N 37°44' E 023°41'523.8
2018-Jun-16 15:01N 37°48' E 023°38'917.3
2018-Jun-16 14:31N 37°57' E 023°38'0 0.1
2018-Jun-16 14:00N 37°57' E 023°38'0 0.0
2018-Jun-16 13:30N 37°57' E 023°38'0 0.0
2018-Jun-16 13:00N 37°57' E 023°38'0 0.0
2018-Jun-16 12:30N 37°57' E 023°38'0 0.0
2018-Jun-16 12:00N 37°57' E 023°38'4 8.1
2018-Jun-16 11:31N 37°53' E 023°38'1224.0
2018-Jun-16 11:01N 37°42' E 023°45'2423.8
2018-Jun-16 09:59N 37°32' E 024°13'2923.8
2018-Jun-16 08:46N 37°19' E 024°45'624.3
2018-Jun-16 08:30N 37°15' E 024°52'1223.7
2018-Jun-16 08:00N 37°08' E 025°04'4 4.3
2018-Jun-16 07:12N 37°06' E 025°08'521.6
2018-Jun-16 06:58N 37°09' E 025°13'817.6
2018-Jun-16 06:31N 37°06' E 025°22'1 2.8
2018-Jun-16 06:00N 37°06' E 025°20'7 0.8
2018-Jun-15 20:46N 36°59' E 025°17'622.3
2018-Jun-15 20:30N 37°05' E 025°19'3 6.1
2018-Jun-15 20:00N 37°06' E 025°22'714.5
2018-Jun-15 19:31N 37°10' E 025°14'7 7.2
2018-Jun-15 18:36N 37°05' E 025°08'219.5
2018-Jun-15 18:30N 37°06' E 025°06'1224.4
2018-Jun-15 18:01N 37°14' E 024°54'6023.6
2018-Jun-15 15:29N 37°39' E 023°46'1122.9
2018-Jun-15 15:00N 37°48' E 023°38'917.5
2018-Jun-15 14:31N 37°57' E 023°38'0 0.0
2018-Jun-15 14:00N 37°57' E 023°38'0 0.0
2018-Jun-15 13:30N 37°57' E 023°38'0 0.0
2018-Jun-15 13:00N 37°57' E 023°38'0 0.0
2018-Jun-15 12:30N 37°57' E 023°38'0 0.0
2018-Jun-15 12:00N 37°57' E 023°38'5 9.3
2018-Jun-15 11:31N 37°52' E 023°39'1224.6
2018-Jun-15 11:01N 37°41' E 023°46'1223.8
2018-Jun-15 10:30N 37°36' E 023°59'1224.2
2018-Jun-15 10:00N 37°31' E 024°14'2823.7
2018-Jun-15 08:49N 37°19' E 024°45'724.4
2018-Jun-15 08:30N 37°14' E 024°53'1224.2
2018-Jun-15 08:01N 37°07' E 025°05'3 3.3
2018-Jun-15 07:14N 37°07' E 025°08'520.8
2018-Jun-15 07:00N 37°09' E 025°13'815.8
2018-Jun-15 06:30N 37°06' E 025°22'0 0.0
2018-Jun-15 06:00N 37°06' E 025°22'714.3
2018-Jun-15 05:30N 37°11' E 025°29'1121.3
2018-Jun-15 05:00N 37°09' E 025°42'3 0.4
2018-Jun-14 22:16N 37°07' E 025°44'622.9
2018-Jun-14 22:00N 37°10' E 025°38'1019.8
2018-Jun-14 21:30N 37°10' E 025°25'4 8.2
2018-Jun-14 20:59N 37°06' E 025°22'13 8.5
2018-Jun-14 19:31N 37°07' E 025°06'124.2
2018-Jun-14 19:29N 37°08' E 025°06'1124.3
2018-Jun-14 19:00N 37°19' E 025°01'8 9.0
2018-Jun-14 18:08N 37°26' E 024°57'320.9
2018-Jun-14 18:00N 37°29' E 024°57'1122.1
2018-Jun-14 17:30N 37°32' E 024°44'4123.0
2018-Jun-14 15:43N 37°37' E 023°52'523.9
2018-Jun-14 15:30N 37°38' E 023°46'1122.9
2018-Jun-14 15:00N 37°48' E 023°38'917.6
2018-Jun-14 14:31N 37°57' E 023°38'0 0.1
2018-Jun-14 14:00N 37°57' E 023°38'0 0.0
2018-Jun-14 13:30N 37°57' E 023°38'0 0.0
2018-Jun-14 13:00N 37°57' E 023°38'0 0.0
2018-Jun-14 12:31N 37°57' E 023°38'0 0.0
2018-Jun-14 12:01N 37°57' E 023°38'0 0.0
2018-Jun-14 11:31N 37°57' E 023°38'0 0.0
2018-Jun-14 11:01N 37°57' E 023°38'0 0.0
2018-Jun-14 10:30N 37°57' E 023°38'0 0.0
2018-Jun-14 10:00N 37°57' E 023°38'0 0.0
2018-Jun-14 09:30N 37°57' E 023°38'0 0.0
2018-Jun-14 09:00N 37°57' E 023°38'0 0.0
2018-Jun-14 08:30N 37°57' E 023°38'0 0.5
2018-Jun-14 07:40N 37°57' E 023°38'211.1
2018-Jun-14 07:31N 37°55' E 023°37'1019.1
2018-Jun-14 07:01N 37°46' E 023°42'1620.5
2018-Jun-14 06:15N 37°37' E 023°58'3921.3
2018-Jun-14 04:24N 37°23' E 024°45'821.3
2018-Jun-14 04:00N 37°20' E 024°54'1121.4
2018-Jun-14 03:30N 37°20' E 025°08'1121.5
2018-Jun-14 03:00N 37°19' E 025°21'1621.3
2018-Jun-14 02:15N 37°18' E 025°42'521.4
2018-Jun-14 02:00N 37°18' E 025°48'  

Dump ship's entire track history